Time;durP1;ratioP1;P1;durP2;ratioP2;P2;SDS_P1;SDS_P2;PMS_P1;PMS_P2;Temp;Humidity;BMP_temperature;BMP_pressure;BME280_temperature;BME280_humidity;BME280_pressure;Samples;Min_cycle;Max_cycle;Signal;HPM_P1;HPM_P2
2022/09/12 00:02:15;;;;;;;3.90;3.60;;;;;;;12.93;92.31;101891.81;4966420;28;20192;-76
2022/09/12 00:04:41;;;;;;;5.37;3.90;;;;;;;12.93;92.97;101893.53;4986083;28;20279;-76
2022/09/12 00:07:06;;;;;;;4.17;3.73;;;;;;;12.86;92.66;101895.91;4967838;28;20208;-76
2022/09/12 00:09:31;;;;;;;4.17;3.77;;;;;;;12.84;92.63;101894.97;4965738;28;20207;-76
2022/09/12 00:11:57;;;;;;;4.47;4.07;;;;;;;12.78;92.34;101888.00;4965470;28;20202;-76
2022/09/12 00:14:22;;;;;;;3.93;3.57;;;;;;;12.75;92.94;101890.47;4959946;28;20193;-75
2022/09/12 00:16:48;;;;;;;4.83;3.60;;;;;;;12.73;93.04;101892.09;4959164;28;20224;-76
2022/09/12 00:19:13;;;;;;;4.20;3.80;;;;;;;12.68;92.77;101888.53;4965276;28;20184;-75
2022/09/12 00:21:40;;;;;;;3.90;3.53;;;;;;;12.65;92.60;101883.34;4959851;28;20195;-75
2022/09/12 00:24:06;;;;;;;4.80;3.70;;;;;;;12.58;92.21;101881.41;4970125;28;20188;-76
2022/09/12 00:26:32;;;;;;;3.77;3.13;;;;;;;12.53;92.25;101880.41;4963331;28;20648;-76
2022/09/12 00:28:57;;;;;;;3.50;3.10;;;;;;;12.53;92.60;101871.88;4967483;28;20221;-75
2022/09/12 00:31:25;;;;;;;3.40;3.17;;;;;;;12.61;92.62;101880.63;4963894;28;20573;-75
2022/09/12 00:33:51;;;;;;;3.50;3.20;;;;;;;12.65;93.03;101883.34;4963292;28;20223;-76
2022/09/12 00:36:20;;;;;;;3.57;2.90;;;;;;;12.62;93.04;101870.41;4971391;28;20692;-76
2022/09/12 00:38:47;;;;;;;3.53;3.20;;;;;;;12.65;93.21;101872.19;4981650;28;20197;-76
2022/09/12 00:41:20;;;;;;;4.47;4.07;;;;;;;12.65;94.21;101878.22;4959458;28;20227;-76
2022/09/12 00:43:51;;;;;;;5.80;4.87;;;;;;;12.64;94.49;101867.88;4961366;28;20192;-76
2022/09/12 00:46:35;;;;;;;8.30;6.20;;;;;;;12.65;95.90;101873.06;4963929;28;20292;-76
2022/09/12 00:49:06;;;;;;;5.60;5.00;;;;;;;12.59;96.48;101870.31;4957307;28;20215;-76
2022/09/12 00:51:35;;;;;;;9.60;5.40;;;;;;;12.57;96.95;101873.66;4977385;28;20186;-76
2022/09/12 00:54:07;;;;;;;9.93;6.13;;;;;;;12.53;97.15;101865.00;4967345;28;20192;-76
2022/09/12 00:56:35;;;;;;;9.40;6.23;;;;;;;12.47;97.26;101866.53;4972279;28;20212;-75
2022/09/12 00:59:10;;;;;;;8.43;6.40;;;;;;;12.40;96.88;101862.91;4965260;28;20559;-76
2022/09/12 01:01:38;;;;;;;6.80;6.17;;;;;;;12.38;96.47;101864.59;4964837;28;20202;-76
2022/09/12 01:04:04;;;;;;;10.50;6.20;;;;;;;12.35;96.45;101861.91;4969563;28;20243;-76
2022/09/12 01:06:35;;;;;;;8.43;6.30;;;;;;;12.31;95.91;101862.66;4966777;28;20216;-76
2022/09/12 01:09:03;;;;;;;6.67;6.03;;;;;;;12.24;96.52;101855.63;4969425;28;20214;-76
2022/09/12 01:11:30;;;;;;;8.50;6.03;;;;;;;12.26;96.35;101853.09;4962642;28;20201;-76
2022/09/12 01:13:56;;;;;;;6.13;5.63;;;;;;;12.20;96.08;101855.47;4957921;28;20196;-76
2022/09/12 01:16:22;;;;;;;6.50;5.90;;;;;;;12.18;96.20;101855.44;4958438;28;20212;-76
2022/09/12 01:19:13;;;;;;;6.57;5.93;;;;;;;12.19;95.56;101851.16;4963443;28;20556;-76
2022/09/12 01:22:05;;;;;;;5.67;5.10;;;;;;;12.17;95.98;101847.69;4962781;28;20226;-76
2022/09/12 01:24:42;;;;;;;6.20;5.60;;;;;;;12.17;95.75;101855.41;4963172;28;20205;-76
2022/09/12 01:27:33;;;;;;;6.83;6.20;;;;;;;12.12;95.59;101852.69;4953697;28;20234;-76
2022/09/12 01:30:37;;;;;;;16.90;6.70;;;;;;;12.08;95.56;101855.97;4969184;28;20203;-76
2022/09/12 01:33:18;;;;;;;10.40;6.83;;;;;;;12.07;95.56;101855.97;4973570;28;20622;-75
2022/09/12 01:36:18;;;;;;;10.17;7.00;;;;;;;12.00;95.68;101856.59;4970405;28;20205;-75
2022/09/12 01:38:48;;;;;;;9.03;7.10;;;;;;;12.02;96.42;101849.78;4964020;28;20185;-78
2022/09/12 01:41:40;;;;;;;11.83;7.03;;;;;;;12.02;96.62;101842.97;4970199;28;20196;-75
2022/09/12 01:44:08;;;;;;;11.13;7.90;;;;;;;11.95;97.07;101843.63;4959302;28;20195;-76
2022/09/12 01:46:51;;;;;;;11.17;7.93;;;;;;;11.89;97.58;101840.88;4970713;28;20212;-78
2022/09/12 01:49:36;;;;;;;10.13;7.77;;;;;;;11.86;97.41;101837.34;4988487;28;20214;-77
2022/09/12 01:52:22;;;;;;;12.87;7.87;;;;;;;11.84;97.17;101834.72;4967274;28;20271;-77
2022/09/12 01:54:58;;;;;;;13.77;7.93;;;;;;;11.84;97.53;101829.59;4975138;28;20188;-78
2022/09/12 01:57:30;;;;;;;8.53;7.67;;;;;;;11.85;97.25;101830.47;4985762;28;20230;-78
2022/09/12 02:00:02;;;;;;;9.67;8.27;;;;;;;11.85;96.62;101836.47;4959721;28;20192;-77
2022/09/12 02:02:34;;;;;;;9.43;8.53;;;;;;;11.84;96.95;101827.03;4976906;28;20274;-77
2022/09/12 02:05:13;;;;;;;9.53;8.13;;;;;;;11.82;96.73;101828.69;4978123;28;20199;-77
2022/09/12 02:07:46;;;;;;;14.90;8.03;;;;;;;11.82;97.42;101828.69;4969808;28;20205;-77
2022/09/12 02:10:22;;;;;;;12.97;7.83;;;;;;;11.82;97.31;101827.81;4973152;28;20235;-77
2022/09/12 02:12:51;;;;;;;9.23;6.97;;;;;;;11.79;97.78;101827.69;4995548;28;20288;-77
2022/09/12 02:15:22;;;;;;;8.07;7.27;;;;;;;11.86;97.98;101832.22;4975264;28;20184;-77
2022/09/12 02:17:50;;;;;;;7.77;6.77;;;;;;;11.87;98.00;101827.13;4975059;28;20678;-78
2022/09/12 02:20:28;;;;;;;6.83;6.23;;;;;;;11.87;98.16;101824.56;4992426;28;20732;-77
2022/09/12 02:22:56;;;;;;;8.23;7.43;;;;;;;11.90;97.98;101828.91;4975644;28;20207;-77
2022/09/12 02:25:24;;;;;;;9.63;8.07;;;;;;;11.90;98.28;101828.91;4971791;28;20239;-77
2022/09/12 02:28:05;;;;;;;9.50;7.23;;;;;;;11.95;98.98;101822.22;4955556;28;20219;-76
2022/09/12 02:30:38;;;;;;;7.67;7.00;;;;;;;11.88;99.73;101821.16;4965804;28;20664;-76
2022/09/12 02:33:16;;;;;;;10.70;7.37;;;;;;;11.88;99.99;101815.16;4980141;28;20274;-77
2022/09/12 02:35:50;;;;;;;10.60;7.00;;;;;;;11.82;100.00;101823.56;4977153;28;20319;-77
2022/09/12 02:38:27;;;;;;;7.73;6.80;;;;;;;11.81;100.00;101811.56;4977092;28;20209;-77
2022/09/12 02:40:53;;;;;;;9.90;7.13;;;;;;;11.80;100.00;101817.50;4975678;28;20254;-77
2022/09/12 02:43:19;;;;;;;7.07;6.37;;;;;;;11.85;100.00;101820.22;4978353;28;20764;-77
2022/09/12 02:45:44;;;;;;;10.63;6.00;;;;;;;11.86;100.00;101817.69;4977807;28;20290;-77
2022/09/12 02:48:15;;;;;;;7.97;6.60;;;;;;;11.85;100.00;101815.06;4960530;28;20968;-77
2022/09/12 02:50:42;;;;;;;7.30;6.60;;;;;;;11.85;100.00;101815.06;4982029;28;20599;-76
2022/09/12 02:53:09;;;;;;;6.70;6.20;;;;;;;11.80;100.00;101812.34;4975846;28;20586;-77
2022/09/12 02:55:37;;;;;;;7.30;6.03;;;;;;;11.79;99.54;101813.19;4980421;28;20208;-77
2022/09/12 02:58:07;;;;;;;6.33;5.83;;;;;;;11.76;99.51;101807.09;4979894;28;20287;-77
2022/09/12 03:00:48;;;;;;;6.90;6.20;;;;;;;11.77;99.04;101814.84;4984200;28;20199;-76
2022/09/12 03:03:13;;;;;;;7.47;6.70;;;;;;;11.79;99.05;101812.31;4972159;28;20204;-77
2022/09/12 03:05:59;;;;;;;8.33;6.20;;;;;;;11.82;98.75;101810.72;4979598;28;20212;-76
2022/09/12 03:08:44;;;;;;;8.53;5.50;;;;;;;11.83;98.85;101804.75;4976701;28;20271;-77
2022/09/12 03:11:16;;;;;;;8.30;6.43;;;;;;;11.85;98.96;101805.66;4970693;28;20240;-77
2022/09/12 03:14:21;;;;;;;14.37;7.43;;;;;;;11.79;100.00;101810.63;4980361;28;20676;-77
2022/09/12 03:16:46;;;;;;;10.97;7.23;;;;;;;11.72;100.00;101807.84;4934167;29;20255;-76
2022/09/12 03:19:19;;;;;;;11.40;6.73;;;;;;;11.70;100.00;101806.94;4964231;28;20212;-77
2022/09/12 03:22:06;;;;;;;7.60;7.00;;;;;;;11.65;100.00;101804.22;4993773;28;20717;-77
2022/09/12 03:24:37;;;;;;;11.10;8.37;;;;;;;11.60;100.00;101803.19;4981127;28;20193;-77
2022/09/12 03:27:15;;;;;;;8.53;7.83;;;;;;;11.53;100.00;101808.91;4979266;28;20374;-77
2022/09/12 03:29:43;;;;;;;8.23;7.53;;;;;;;11.52;100.00;101803.78;4980212;28;20363;-77
2022/09/12 03:32:08;;;;;;;9.77;7.47;;;;;;;11.45;100.00;101807.84;4979140;28;20196;-77
2022/09/12 03:34:34;;;;;;;8.00;7.30;;;;;;;11.44;100.00;101808.66;4978873;28;20199;-76
2022/09/12 03:37:00;;;;;;;10.30;7.30;;;;;;;11.44;100.00;101818.91;4974701;28;20697;-76
2022/09/12 03:39:25;;;;;;;11.87;6.83;;;;;;;11.41;100.00;101816.25;4972769;28;20218;-77
2022/09/12 03:41:52;;;;;;;11.83;6.50;;;;;;;11.40;100.00;101813.63;4978596;28;20199;-77
2022/09/12 03:44:18;;;;;;;8.17;6.63;;;;;;;11.42;100.00;101817.97;4973772;28;20331;-76
2022/09/12 03:46:43;;;;;;;18.23;7.47;;;;;;;11.43;100.00;101816.31;4979263;28;20294;-77
2022/09/12 03:49:09;;;;;;;8.60;7.23;;;;;;;11.38;100.00;101817.84;4971009;28;20223;-76
2022/09/12 03:51:36;;;;;;;7.93;7.10;;;;;;;11.36;100.00;101814.34;4974234;28;20200;-76
2022/09/12 03:54:02;;;;;;;7.93;6.77;;;;;;;11.35;100.00;101817.75;4970511;28;20198;-76
2022/09/12 03:56:28;;;;;;;10.83;7.13;;;;;;;11.36;100.00;101822.03;4977282;28;20219;-76
2022/09/12 03:58:53;;;;;;;8.17;7.00;;;;;;;11.38;100.00;101820.41;4978073;28;20198;-77
2022/09/12 04:01:19;;;;;;;8.63;6.17;;;;;;;11.36;100.00;101816.91;4971091;28;20189;-76
2022/09/12 04:03:48;;;;;;;10.63;6.70;;;;;;;11.34;100.00;101824.56;4975431;28;20196;-75
2022/09/12 04:06:15;;;;;;;10.23;6.40;;;;;;;11.28;100.00;101826.03;4977157;28;20706;-76
2022/09/12 04:08:42;;;;;;;7.57;6.13;;;;;;;11.24;100.00;101822.53;4989610;28;20332;-76
2022/09/12 04:11:11;;;;;;;6.50;5.97;;;;;;;11.24;100.00;101819.09;4964080;28;20188;-76
2022/09/12 04:13:38;;;;;;;6.60;6.03;;;;;;;11.22;100.00;101824.19;4970329;28;20193;-76
2022/09/12 04:16:05;;;;;;;11.77;6.50;;;;;;;11.22;100.00;101824.19;4974348;28;20220;-76
2022/09/12 04:18:31;;;;;;;6.60;6.00;;;;;;;11.18;100.00;101822.34;4973584;28;20189;-76
2022/09/12 04:20:57;;;;;;;6.27;5.77;;;;;;;11.16;100.00;101828.22;4975029;28;20656;-76
2022/09/12 04:23:23;;;;;;;5.57;5.10;;;;;;;11.17;100.00;101832.53;4976761;28;20192;-76
2022/09/12 04:25:55;;;;;;;6.57;5.60;;;;;;;11.17;99.81;101829.97;4971306;28;20222;-76
2022/09/12 04:28:21;;;;;;;10.80;5.53;;;;;;;11.22;99.83;101820.72;4975464;28;20552;-77
2022/09/12 04:30:46;;;;;;;6.13;5.53;;;;;;;11.21;100.00;101822.44;4968729;28;20199;-77
2022/09/12 04:33:12;;;;;;;5.43;4.90;;;;;;;11.23;100.00;101819.91;4990613;28;20281;-76
2022/09/12 04:35:37;;;;;;;5.63;4.90;;;;;;;11.28;99.88;101813.22;4967851;28;20212;-76
2022/09/12 04:38:03;;;;;;;7.53;5.53;;;;;;;11.30;99.66;101807.31;4976688;28;20197;-78
2022/09/12 04:40:29;;;;;;;7.53;6.33;;;;;;;11.32;99.85;101813.38;4962463;28;20276;-77
2022/09/12 04:42:55;;;;;;;12.60;6.30;;;;;;;11.32;100.00;101813.38;4976740;28;20219;-77
2022/09/12 04:45:21;;;;;;;9.00;5.90;;;;;;;11.33;100.00;101809.16;4969831;28;20281;-76
2022/09/12 04:47:46;;;;;;;9.03;6.03;;;;;;;11.31;100.00;101801.41;4971675;28;20212;-76
2022/09/12 04:50:13;;;;;;;10.00;6.37;;;;;;;11.32;100.00;101809.94;4968495;28;20184;-76
2022/09/12 04:52:42;;;;;;;8.90;6.03;;;;;;;11.33;100.00;101804.88;4969376;28;20336;-79
2022/09/12 04:55:08;;;;;;;14.40;7.53;;;;;;;11.34;100.00;101809.16;4966279;28;20278;-76
2022/09/12 04:57:34;;;;;;;8.10;7.00;;;;;;;11.32;100.00;101808.25;4969678;28;20204;-76
2022/09/12 05:00:00;;;;;;;10.30;8.30;;;;;;;11.30;100.00;101807.31;4972633;28;20200;-75
2022/09/12 05:02:25;;;;;;;9.50;8.27;;;;;;;11.29;100.00;101809.88;4951701;28;20211;-77
2022/09/12 05:04:51;;;;;;;11.60;8.13;;;;;;;11.31;100.00;101811.66;4971455;28;20197;-76
2022/09/12 05:07:18;;;;;;;11.47;8.77;;;;;;;11.29;100.00;101808.16;4964416;28;20232;-76
2022/09/12 05:09:43;;;;;;;9.50;8.50;;;;;;;11.36;100.00;101804.97;4966364;28;20189;-76
2022/09/12 05:12:09;;;;;;;11.07;8.77;;;;;;;11.36;100.00;101806.66;4967523;28;20219;-76
2022/09/12 05:14:35;;;;;;;10.77;8.53;;;;;;;11.36;100.00;101804.97;4963898;28;20212;-75
2022/09/12 05:17:01;;;;;;;9.10;8.20;;;;;;;11.33;100.00;101814.28;4967513;28;20216;-75
2022/09/12 05:19:29;;;;;;;9.20;8.30;;;;;;;11.34;100.00;101809.16;4974454;28;20181;-77
2022/09/12 05:21:55;;;;;;;8.93;8.13;;;;;;;11.40;100.00;101809.38;4956808;28;20201;-78
2022/09/12 05:24:20;;;;;;;7.90;7.17;;;;;;;11.44;100.00;101805.22;4955491;28;20193;-77
2022/09/12 05:26:46;;;;;;;7.83;7.13;;;;;;;11.47;100.00;101807.88;4947132;28;20565;-77
2022/09/12 05:29:12;;;;;;;8.77;6.57;;;;;;;11.48;100.00;101805.34;4956276;28;20209;-78
2022/09/12 05:31:37;;;;;;;7.67;6.97;;;;;;;11.56;100.00;101811.59;4960918;28;20786;-77
2022/09/12 05:34:05;;;;;;;13.23;7.30;;;;;;;11.60;100.00;101808.34;4962948;28;20279;-78
2022/09/12 05:36:32;;;;;;;11.90;7.40;;;;;;;11.64;100.00;101807.59;4954724;28;20213;-77
2022/09/12 05:38:58;;;;;;;9.10;7.80;;;;;;;11.71;100.00;101804.38;4962224;28;20200;-76
2022/09/12 05:41:28;;;;;;;14.17;8.00;;;;;;;11.73;100.00;101795.06;4964987;28;20191;-77
2022/09/12 05:44:02;;;;;;;20.43;8.00;;;;;;;11.79;100.00;101807.16;4960109;28;20557;-77
2022/09/12 05:46:34;;;;;;;15.20;8.23;;;;;;;11.77;100.00;101807.16;4958372;28;20290;-77
2022/09/12 05:49:08;;;;;;;16.30;8.43;;;;;;;11.78;100.00;101806.31;4960370;28;20239;-77
2022/09/12 05:51:37;;;;;;;13.00;8.33;;;;;;;11.86;100.00;101810.00;4965835;28;20194;-78
2022/09/12 05:54:04;;;;;;;15.80;8.97;;;;;;;11.90;100.00;101810.94;4964142;28;20241;-78
2022/09/12 05:56:33;;;;;;;13.93;9.33;;;;;;;11.92;100.00;101809.28;4965523;28;20239;-78
2022/09/12 05:59:04;;;;;;;15.87;9.00;;;;;;;11.88;100.00;101813.47;4953742;28;20324;-78
2022/09/12 06:01:32;;;;;;;13.07;9.67;;;;;;;11.84;100.00;101810.78;4972466;28;20729;-78
2022/09/12 06:03:59;;;;;;;18.43;10.67;;;;;;;11.88;100.00;101815.16;4966085;28;20681;-77
2022/09/12 06:06:26;;;;;;;13.97;10.77;;;;;;;12.01;100.00;101813.00;4956679;28;20209;-77
2022/09/12 06:08:56;;;;;;;21.47;11.97;;;;;;;12.08;100.00;101820.03;4975287;28;20267;-78
2022/09/12 06:11:24;;;;;;;15.20;12.73;;;;;;;12.10;100.00;101815.84;4970228;28;20658;-78
2022/09/12 06:13:51;;;;;;;15.47;11.63;;;;;;;12.24;100.00;101813.66;4971185;28;20201;-78
2022/09/12 06:16:20;;;;;;;14.40;12.40;;;;;;;12.36;100.00;101817.41;4969819;28;20586;-78
2022/09/12 06:18:52;;;;;;;21.50;12.73;;;;;;;12.39;100.00;101826.94;4971311;28;20542;-78
2022/09/12 06:21:19;;;;;;;20.40;13.57;;;;;;;12.48;100.00;101816.88;4972578;28;20195;-78
2022/09/12 06:23:45;;;;;;;14.73;13.03;;;;;;;12.62;100.00;101820.69;4962106;28;20185;-78
2022/09/12 06:26:10;;;;;;;15.20;13.60;;;;;;;12.68;100.00;101816.59;4970912;28;20227;-77
2022/09/12 06:28:38;;;;;;;15.27;13.53;;;;;;;12.69;100.00;101825.19;4960901;28;20217;-78
2022/09/12 06:31:06;;;;;;;15.37;13.83;;;;;;;12.73;100.00;101817.56;4971741;28;20537;-78
2022/09/12 06:33:33;;;;;;;15.47;13.87;;;;;;;12.79;100.00;101819.44;4966510;28;20189;-78
2022/09/12 06:36:05;;;;;;;14.80;13.30;;;;;;;12.81;100.00;101817.81;4975632;28;20213;-77
2022/09/12 06:38:31;;;;;;;14.53;13.03;;;;;;;12.94;100.00;101830.13;4961915;28;20856;-76
2022/09/12 06:40:59;;;;;;;14.30;12.90;;;;;;;12.96;100.00;101825.91;4970923;28;20730;-77
2022/09/12 06:43:24;;;;;;;13.80;12.47;;;;;;;13.12;100.00;101816.91;4980545;28;20188;-77
2022/09/12 06:45:50;;;;;;;13.23;11.80;;;;;;;13.23;100.00;101813.75;4972748;28;20727;-76
2022/09/12 06:48:16;;;;;;;13.97;12.67;;;;;;;13.40;100.00;101817.59;4980929;28;20291;-77
2022/09/12 06:50:41;;;;;;;12.67;11.37;;;;;;;13.67;100.00;101814.78;4971867;28;20185;-77
2022/09/12 06:53:07;;;;;;;11.10;10.03;;;;;;;13.98;99.99;101805.19;4977015;28;20222;-77
2022/09/12 06:55:32;;;;;;;10.83;9.83;;;;;;;14.38;98.68;101801.72;4975112;28;20212;-77
2022/09/12 06:57:58;;;;;;;9.83;8.83;;;;;;;14.48;97.54;101807.09;4964724;28;20180;-77
2022/09/12 07:00:24;;;;;;;10.33;9.43;;;;;;;14.16;96.95;101809.84;4969375;28;20669;-77
2022/09/12 07:02:53;;;;;;;10.17;9.27;;;;;;;14.16;96.86;101803.00;4979215;28;20235;-77
2022/09/12 07:05:18;;;;;;;11.07;9.97;;;;;;;14.12;97.13;101800.31;4967584;28;20552;-77
2022/09/12 07:07:44;;;;;;;12.07;10.87;;;;;;;14.30;96.35;101809.31;4974338;28;20218;-77
2022/09/12 07:10:11;;;;;;;11.43;10.43;;;;;;;14.46;95.26;101806.19;4975320;28;20201;-77
2022/09/12 07:12:36;;;;;;;10.80;9.80;;;;;;;14.83;94.53;101810.31;4976068;28;20200;-77
2022/09/12 07:15:02;;;;;;;10.67;9.67;;;;;;;14.90;94.22;101807.00;4946069;28;20220;-77
2022/09/12 07:17:27;;;;;;;10.47;9.50;;;;;;;14.93;93.28;101807.06;4975617;28;20202;-77
2022/09/12 07:19:53;;;;;;;10.33;9.40;;;;;;;15.19;92.51;101800.63;4967345;28;20227;-77
2022/09/12 07:22:18;;;;;;;10.20;9.33;;;;;;;15.61;91.92;101798.72;4956322;28;20556;-77
2022/09/12 07:24:44;;;;;;;10.37;9.33;;;;;;;15.54;90.20;101804.63;4973488;28;20181;-77
2022/09/12 07:27:10;;;;;;;11.13;10.13;;;;;;;15.62;90.62;101805.63;4972534;28;20700;-77
2022/09/12 07:29:36;;;;;;;11.53;10.50;;;;;;;15.86;90.54;101801.66;4978241;28;20216;-78
2022/09/12 07:32:03;;;;;;;10.60;9.70;;;;;;;15.93;90.27;101797.44;4973906;28;20620;-78
2022/09/12 07:34:28;;;;;;;11.20;10.30;;;;;;;16.21;88.92;101791.78;4975561;28;20275;-78
2022/09/12 07:36:53;;;;;;;10.50;9.50;;;;;;;16.41;88.91;101795.47;4972192;28;20300;-77
2022/09/12 07:39:19;;;;;;;9.73;8.93;;;;;;;16.71;87.33;101790.63;4963963;28;20286;-78
2022/09/12 07:41:44;;;;;;;10.70;9.70;;;;;;;16.75;85.97;101798.44;4978564;28;20234;-77
2022/09/12 07:44:10;;;;;;;9.30;8.60;;;;;;;16.89;86.31;101785.59;4978671;28;20661;-78
2022/09/12 07:46:35;;;;;;;9.40;8.60;;;;;;;17.07;86.01;101786.63;4974405;28;20253;-78
2022/09/12 07:49:01;;;;;;;9.50;8.70;;;;;;;16.98;86.14;101794.31;4977331;28;20218;-78
2022/09/12 07:51:28;;;;;;;9.43;8.63;;;;;;;17.04;85.42;101785.75;4964659;28;20184;-78
2022/09/12 07:53:55;;;;;;;9.77;8.83;;;;;;;17.43;84.56;101780.91;4978077;28;20328;-76
2022/09/12 07:56:21;;;;;;;8.83;8.03;;;;;;;17.79;83.91;101775.94;4991913;28;20212;-76
2022/09/12 07:58:47;;;;;;;9.70;8.90;;;;;;;17.81;83.46;101774.19;4973170;28;20242;-78
2022/09/12 08:01:15;;;;;;;9.90;8.90;;;;;;;17.95;82.72;101776.00;4982589;28;20196;-77
2022/09/12 08:03:43;;;;;;;9.17;8.30;;;;;;;18.22;81.79;101778.72;4978791;28;20254;-78
2022/09/12 08:06:14;;;;;;;9.83;8.70;;;;;;;18.47;80.53;101774.50;4975024;28;20565;-76
2022/09/12 08:08:40;;;;;;;9.63;8.83;;;;;;;18.67;80.57;101771.06;4955400;28;20204;-77
2022/09/12 08:11:12;;;;;;;9.40;8.60;;;;;;;19.01;79.90;101762.44;4978075;28;20199;-76
2022/09/12 08:13:38;;;;;;;9.73;8.93;;;;;;;19.05;77.92;101766.75;4961073;28;20192;-76
2022/09/12 08:16:07;;;;;;;9.17;8.37;;;;;;;19.05;78.16;101771.06;4978465;28;20292;-78
2022/09/12 08:18:34;;;;;;;9.60;8.70;;;;;;;19.05;78.09;101774.56;4982788;28;20203;-77
2022/09/12 08:21:02;;;;;;;9.70;8.90;;;;;;;19.26;77.49;101760.72;4975004;28;20699;-79
2022/09/12 08:23:28;;;;;;;10.07;9.17;;;;;;;18.99;78.01;101764.19;4983234;28;20587;-78
2022/09/12 08:26:02;;;;;;;9.13;8.10;;;;;;;19.50;76.75;101768.47;4975209;28;20278;-75
2022/09/12 08:28:28;;;;;;;8.43;7.73;;;;;;;19.89;76.22;101764.00;4981779;28;20640;-78
2022/09/12 08:31:00;;;;;;;9.37;8.50;;;;;;;20.25;75.08;101761.28;4979091;28;20213;-79
2022/09/12 08:33:31;;;;;;;8.20;7.50;;;;;;;20.61;72.95;101768.88;4979823;28;20188;-77
2022/09/12 08:36:05;;;;;;;9.03;8.23;;;;;;;20.37;72.95;101773.38;4975395;28;20319;-77
2022/09/12 08:38:31;;;;;;;10.47;7.90;;;;;;;20.78;73.15;101766.16;4963964;28;20661;-78
2022/09/12 08:41:04;;;;;;;7.50;6.80;;;;;;;20.98;70.27;101764.28;4980304;28;20195;-77
2022/09/12 08:43:55;;;;;;;8.77;7.97;;;;;;;21.05;70.48;101752.94;4976988;28;20255;-77
2022/09/12 08:46:34;;;;;;;8.17;7.47;;;;;;;21.22;71.41;101751.91;4991763;28;20216;-78
2022/09/12 08:49:02;;;;;;;8.03;7.43;;;;;;;21.56;68.38;101742.84;4977948;28;20219;-78
2022/09/12 08:51:33;;;;;;;8.77;8.07;;;;;;;21.10;71.28;101756.38;4979941;28;20196;-77
2022/09/12 08:54:01;;;;;;;8.53;7.83;;;;;;;21.61;68.24;101751.47;4975199;28;20184;-77
2022/09/12 08:56:32;;;;;;;8.23;7.43;;;;;;;22.09;67.67;101745.72;4976605;28;20230;-78
2022/09/12 08:58:58;;;;;;;7.87;7.27;;;;;;;21.66;68.89;101756.66;4973448;28;20522;-77
2022/09/12 09:01:34;;;;;;;7.70;7.00;;;;;;;21.92;67.23;101746.84;4992248;28;20184;-77
2022/09/12 09:04:26;;;;;;;7.53;6.90;;;;;;;22.29;67.29;101743.69;4980002;28;20253;-77
2022/09/12 09:07:00;;;;;;;9.03;7.30;;;;;;;22.25;65.26;101747.22;4969752;28;20295;-77
2022/09/12 09:09:41;;;;;;;7.90;7.20;;;;;;;22.13;65.92;101746.53;4965138;28;20215;-77
2022/09/12 09:12:39;;;;;;;7.70;7.07;;;;;;;22.67;64.99;101735.34;4989079;28;20195;-77
2022/09/12 09:15:10;;;;;;;7.38;6.60;;;;;;;22.51;64.25;101736.44;4969350;28;20267;-78
2022/09/12 09:17:46;;;;;;;7.43;6.68;;;;;;;22.88;63.87;101723.69;4970263;28;20204;-78
2022/09/12 09:20:30;;;;;;;6.10;5.55;;;;;;;23.31;61.64;101730.78;4946337;28;20223;-78
2022/09/12 09:23:02;;;;;;;6.47;5.97;;;;;;;24.12;59.23;101725.66;4968288;28;20835;-78
2022/09/12 09:25:53;;;;;;;5.90;5.45;;;;;;;25.98;54.53;101708.59;4951117;28;20207;-78
2022/09/12 09:28:38;;;;;;;6.03;5.43;;;;;;;27.11;50.32;101712.75;4977348;28;20223;-77
2022/09/12 09:31:13;;;;;;;5.20;4.70;;;;;;;27.68;49.21;101708.94;4970726;28;20683;-77
2022/09/12 09:33:39;;;;;;;5.97;5.57;;;;;;;27.31;48.10;101707.72;4977979;28;20189;-77
2022/09/12 09:36:24;;;;;;;5.90;5.40;;;;;;;28.02;46.44;101705.94;4989172;28;20779;-77
2022/09/12 09:39:04;;;;;;;5.53;5.03;;;;;;;28.08;45.75;101710.94;4970257;28;20199;-77
2022/09/12 09:41:29;;;;;;;5.60;5.10;;;;;;;29.51;42.95;101693.44;4975784;28;20581;-77
2022/09/12 09:43:56;;;;;;;5.72;5.20;;;;;;;30.55;42.40;101683.22;4965808;28;20198;-77
2022/09/12 09:46:22;;;;;;;4.45;4.05;;;;;;;30.82;41.38;101681.88;4972691;28;20578;-77
2022/09/12 09:48:50;;;;;;;5.75;5.35;;;;;;;29.57;42.82;101679.16;4965438;28;20211;-77
2022/09/12 09:51:23;;;;;;;6.00;5.18;;;;;;;30.09;42.47;101686.38;4975972;28;20612;-78
2022/09/12 09:53:51;;;;;;;4.95;4.55;;;;;;;30.56;41.03;101669.06;4963718;28;20187;-77
2022/09/12 09:56:36;;;;;;;5.63;5.13;;;;;;;30.15;41.54;101664.09;4970861;28;20221;-77
2022/09/12 09:59:10;;;;;;;5.20;4.70;;;;;;;30.47;41.18;101666.03;4977131;28;20186;-77
2022/09/12 10:01:38;;;;;;;4.32;3.92;;;;;;;30.78;39.45;101658.28;4972525;28;20197;-77
2022/09/12 10:04:04;;;;;;;4.20;3.90;;;;;;;30.85;39.92;101665.00;4975926;28;20191;-77
2022/09/12 10:06:33;;;;;;;4.90;4.50;;;;;;;30.39;39.79;101661.13;4966284;28;20220;-77
2022/09/12 10:09:13;;;;;;;5.10;4.70;;;;;;;29.93;41.41;101662.44;4971565;28;20208;-77
2022/09/12 10:11:39;;;;;;;4.65;4.25;;;;;;;29.47;41.31;101662.81;4963569;28;20283;-77
2022/09/12 10:14:24;;;;;;;5.40;5.00;;;;;;;27.94;44.58;101674.63;4947796;28;20320;-76
2022/09/12 10:16:52;;;;;;;5.05;4.65;;;;;;;26.79;46.77;101679.69;4959540;28;20262;-79
2022/09/12 10:19:23;;;;;;;5.78;5.28;;;;;;;27.06;47.54;101673.47;4959206;28;20273;-79
2022/09/12 10:21:55;;;;;;;4.78;4.38;;;;;;;28.22;43.75;101671.75;4991953;28;20203;-79
2022/09/12 10:24:36;;;;;;;4.55;4.25;;;;;;;27.75;44.72;101676.22;4958562;28;20307;-78
2022/09/12 10:27:11;;;;;;;3.42;3.22;;;;;;;27.58;44.13;101675.97;4974282;28;20266;-78
2022/09/12 10:29:59;;;;;;;2.90;2.60;;;;;;;28.34;43.42;101666.84;4968122;28;20246;-78
2022/09/12 10:32:38;;;;;;;2.67;2.47;;;;;;;28.72;42.68;101663.53;4974515;28;20265;-79
2022/09/12 10:35:08;;;;;;;2.80;2.60;;;;;;;27.26;43.11;101663.13;4972021;28;20247;-79
2022/09/12 10:37:38;;;;;;;2.15;1.90;;;;;;;27.70;43.32;101665.00;4971275;28;20220;-79
2022/09/12 10:40:23;;;;;;;1.88;1.77;;;;;;;28.08;41.51;101667.03;4977941;28;20249;-79
2022/09/12 10:42:50;;;;;;;2.50;2.30;;;;;;;27.05;42.67;101663.00;4952157;28;20732;-78
2022/09/12 10:45:20;;;;;;;1.83;1.73;;;;;;;27.41;42.03;101664.34;4969345;28;20187;-76
2022/09/12 10:47:47;;;;;;;4.68;2.00;;;;;;;27.44;42.96;101653.72;4960581;28;20548;-79
2022/09/12 10:50:19;;;;;;;2.67;2.47;;;;;;;26.77;43.06;101652.59;4968403;28;20283;-79
2022/09/12 10:52:45;;;;;;;1.80;1.70;;;;;;;26.53;44.03;101649.91;4957778;28;20244;-78
2022/09/12 10:55:15;;;;;;;2.10;2.00;;;;;;;26.47;44.66;101655.38;4960140;28;20665;-79
2022/09/12 10:58:03;;;;;;;2.60;2.40;;;;;;;26.64;44.62;101646.03;4956625;28;20185;-79
2022/09/12 11:00:36;;;;;;;4.70;2.55;;;;;;;26.47;44.79;101644.84;4969312;28;20283;-78
2022/09/12 11:03:13;;;;;;;1.80;1.70;;;;;;;26.54;44.84;101641.09;4972862;28;20192;-79
2022/09/12 11:05:52;;;;;;;2.05;1.95;;;;;;;26.50;45.12;101644.72;4961764;28;20252;-79
2022/09/12 11:08:42;;;;;;;3.00;2.72;;;;;;;26.07;45.77;101636.53;4971145;28;20211;-79
2022/09/12 11:11:36;;;;;;;2.10;1.95;;;;;;;26.00;46.11;101640.25;4969534;28;20188;-77
2022/09/12 11:14:10;;;;;;;2.50;2.30;;;;;;;26.00;46.57;101635.84;4963135;28;20199;-77
2022/09/12 11:16:46;;;;;;;2.38;2.13;;;;;;;25.26;47.35;101645.06;4968061;28;20212;-79
2022/09/12 11:19:36;;;;;;;2.60;2.40;;;;;;;25.64;48.44;101641.34;4974863;28;20192;-79
2022/09/12 11:22:35;;;;;;;2.78;2.25;;;;;;;25.48;46.97;101648.81;4975202;28;20878;-78
2022/09/12 11:25:14;;;;;;;2.25;2.05;;;;;;;26.40;46.47;101638.06;4975416;28;20195;-78
2022/09/12 11:27:59;;;;;;;2.00;1.90;;;;;;;26.52;45.80;101632.41;4969017;28;20199;-79
2022/09/12 11:30:25;;;;;;;2.72;1.80;;;;;;;25.66;45.55;101640.41;4975619;28;20242;-78
2022/09/12 11:33:04;;;;;;;2.20;1.90;;;;;;;25.38;46.58;101636.84;4966463;28;20203;-79
2022/09/12 11:35:39;;;;;;;1.83;1.70;;;;;;;25.74;46.21;101624.41;4977256;28;20196;-79
2022/09/12 11:38:28;;;;;;;1.60;1.50;;;;;;;26.21;45.14;101627.31;4970533;28;20218;-79